Time;durP1;ratioP1;P1;durP2;ratioP2;P2;SDS_P1;SDS_P2;PMS_P1;PMS_P2;Temp;Humidity;BMP_temperature;BMP_pressure;BME280_temperature;BME280_humidity;BME280_pressure;Samples;Min_cycle;Max_cycle;Signal;HPM_P1;HPM_P2
2021/12/31 00:01:35;;;;;;;31.17;5.03;;;;;;;10.41;100.00;101502.28;5044398;28;20045;-33
2021/12/31 00:04:03;;;;;;;30.75;5.00;;;;;;;10.43;100.00;101500.06;5032762;28;20037;-37
2021/12/31 00:06:31;;;;;;;32.15;4.80;;;;;;;10.44;100.00;101503.69;5038393;28;20053;-36
2021/12/31 00:08:59;;;;;;;34.20;5.45;;;;;;;10.41;100.00;101507.03;5049686;28;20071;-32
2021/12/31 00:11:27;;;;;;;28.67;4.40;;;;;;;10.40;100.00;101510.94;5045213;28;20049;-34
2021/12/31 00:13:54;;;;;;;36.45;5.93;;;;;;;10.42;100.00;101512.34;5034136;28;20042;-34
2021/12/31 00:16:22;;;;;;;28.15;5.03;;;;;;;10.40;100.00;101510.94;5038669;28;20483;-35
2021/12/31 00:18:53;;;;;;;33.03;5.38;;;;;;;10.38;100.00;101516.00;5047736;28;20041;-40
2021/12/31 00:21:21;;;;;;;31.27;4.65;;;;;;;10.35;100.00;101511.81;5043438;28;20048;-38
2021/12/31 00:23:48;;;;;;;33.40;5.43;;;;;;;10.34;100.00;101497.03;5036988;28;20059;-36
2021/12/31 00:26:16;;;;;;;30.00;5.60;;;;;;;10.32;100.00;101479.72;5039420;28;20507;-35
2021/12/31 00:28:44;;;;;;;34.55;5.63;;;;;;;10.28;100.00;101502.88;5044126;28;20060;-35
2021/12/31 00:31:12;;;;;;;35.25;5.40;;;;;;;10.28;100.00;101498.13;5024466;28;20041;-34
2021/12/31 00:33:40;;;;;;;34.22;5.47;;;;;;;10.30;100.00;101511.81;5041409;28;20143;-37
2021/12/31 00:36:09;;;;;;;34.13;5.45;;;;;;;10.34;100.00;101510.13;5038537;28;20380;-37
2021/12/31 00:38:37;;;;;;;36.38;5.10;;;;;;;10.39;100.00;101515.72;5039810;28;20128;-41
2021/12/31 00:41:04;;;;;;;34.35;5.20;;;;;;;10.43;100.00;101511.22;5046122;28;20057;-36
2021/12/31 00:43:32;;;;;;;39.38;5.53;;;;;;;10.47;100.00;101500.31;5042868;28;20041;-35
2021/12/31 00:46:02;;;;;;;27.40;4.78;;;;;;;10.48;100.00;101502.84;5034743;28;20053;-41
2021/12/31 00:48:30;;;;;;;34.70;4.65;;;;;;;10.46;100.00;101520.97;5039573;28;20049;-39
2021/12/31 00:50:58;;;;;;;31.95;5.50;;;;;;;10.49;100.00;101504.50;5047825;28;20054;-41
2021/12/31 00:53:27;;;;;;;32.75;4.80;;;;;;;10.53;100.00;101511.22;5043699;28;20051;-39
2021/12/31 00:55:55;;;;;;;29.67;4.60;;;;;;;10.53;100.00;101505.63;5032516;28;20060;-37
2021/12/31 00:58:22;;;;;;;31.23;5.15;;;;;;;10.55;100.00;101496.97;5037621;28;20120;-32
2021/12/31 01:00:50;;;;;;;34.90;5.55;;;;;;;10.59;100.00;101487.72;5049424;28;20413;-41
2021/12/31 01:03:18;;;;;;;33.03;5.03;;;;;;;10.61;100.00;101495.81;5043940;28;20053;-37
2021/12/31 01:05:46;;;;;;;34.95;5.30;;;;;;;10.60;100.00;101502.50;5031999;28;20054;-39
2021/12/31 01:08:14;;;;;;;35.92;6.00;;;;;;;10.66;100.00;101505.03;5037971;28;20057;-37
2021/12/31 01:10:43;;;;;;;30.23;4.80;;;;;;;10.69;100.00;101520.38;5054256;28;20049;-37
2021/12/31 01:13:18;;;;;;;32.75;4.82;;;;;;;10.69;100.00;101501.66;5048384;28;20048;-31
2021/12/31 01:15:46;;;;;;;31.25;4.35;;;;;;;10.68;100.00;101502.78;5041563;28;20049;-34
2021/12/31 01:18:20;;;;;;;31.55;5.13;;;;;;;10.72;100.00;101502.22;5045398;28;20045;-37
2021/12/31 01:20:48;;;;;;;30.35;4.80;;;;;;;10.69;100.00;101510.03;5052100;28;20049;-40
2021/12/31 01:23:17;;;;;;;27.90;4.70;;;;;;;10.68;100.00;101513.94;5049125;28;20525;-34
2021/12/31 01:25:46;;;;;;;22.90;4.82;;;;;;;10.68;100.00;101519.53;5044543;28;20056;-31
2021/12/31 01:28:14;;;;;;;28.73;4.90;;;;;;;10.67;100.00;101520.66;5044234;28;20049;-34
2021/12/31 01:30:42;;;;;;;34.45;5.75;;;;;;;10.62;100.00;101512.28;5049328;28;20545;-39
2021/12/31 01:33:10;;;;;;;31.52;5.03;;;;;;;10.61;100.00;101521.78;5048478;28;20030;-38
2021/12/31 01:35:38;;;;;;;26.40;4.25;;;;;;;10.59;100.00;101529.59;5048529;28;20056;-36
2021/12/31 01:38:05;;;;;;;34.03;5.13;;;;;;;10.59;100.00;101507.25;5043205;28;20522;-35
2021/12/31 01:40:33;;;;;;;30.92;4.82;;;;;;;10.55;100.00;101525.72;5045156;28;20064;-35
2021/12/31 01:43:03;;;;;;;37.13;5.97;;;;;;;10.57;100.00;101490.00;5052663;28;20089;-35
2021/12/31 01:45:33;;;;;;;26.60;4.22;;;;;;;10.51;100.00;101515.41;5048752;28;20132;-38
2021/12/31 01:48:07;;;;;;;33.95;4.85;;;;;;;10.49;100.00;101501.72;5040418;28;20143;-32
2021/12/31 01:50:36;;;;;;;27.95;5.03;;;;;;;10.49;100.00;101495.31;5045842;28;20048;-32
2021/12/31 01:53:05;;;;;;;27.98;5.03;;;;;;;10.50;100.00;101505.34;5054147;28;20059;-33
2021/12/31 01:55:34;;;;;;;37.95;5.78;;;;;;;10.50;100.00;101503.41;5048661;28;20068;-34
2021/12/31 01:58:04;;;;;;;28.73;4.68;;;;;;;10.49;100.00;101498.09;5038881;28;20050;-44
2021/12/31 02:00:32;;;;;;;34.28;5.00;;;;;;;10.47;100.00;101503.13;5049868;28;20048;-36
2021/12/31 02:03:01;;;;;;;32.90;5.72;;;;;;;10.50;100.00;101517.34;5037931;28;20120;-40
2021/12/31 02:05:29;;;;;;;35.05;5.35;;;;;;;10.47;100.00;101526.28;5043692;28;20510;-36
2021/12/31 02:07:58;;;;;;;26.88;4.85;;;;;;;10.48;100.00;101527.94;5055412;28;20061;-36
2021/12/31 02:10:26;;;;;;;32.35;5.20;;;;;;;10.44;100.00;101524.06;5049824;28;20060;-35
2021/12/31 02:12:56;;;;;;;28.33;4.85;;;;;;;10.42;100.00;101519.88;5039184;28;20451;-35
2021/12/31 02:15:26;;;;;;;26.63;4.97;;;;;;;10.41;100.00;101554.47;5044082;28;20052;-35
2021/12/31 02:17:54;;;;;;;33.42;5.68;;;;;;;10.41;100.00;101535.78;5053816;28;20057;-41
2021/12/31 02:20:34;;;;;;;29.90;5.45;;;;;;;10.44;100.00;101526.00;5047330;28;20483;-36
2021/12/31 02:23:07;;;;;;;32.63;4.57;;;;;;;10.43;100.00;101539.13;5037126;28;20061;-38
2021/12/31 02:25:36;;;;;;;29.67;4.45;;;;;;;10.44;100.00;101532.41;5041700;28;20049;-38
2021/12/31 02:28:04;;;;;;;28.17;5.18;;;;;;;10.49;100.00;101545.53;5049025;28;20055;-38
2021/12/31 02:30:32;;;;;;;28.75;5.20;;;;;;;10.51;100.00;101537.72;5044598;28;20056;-32
2021/12/31 02:33:03;;;;;;;33.38;4.88;;;;;;;10.54;100.00;101537.16;5040117;28;20593;-39
2021/12/31 02:35:33;;;;;;;30.63;4.40;;;;;;;10.57;100.00;101545.81;5041485;28;20115;-40
2021/12/31 02:38:02;;;;;;;26.83;4.75;;;;;;;10.61;100.00;101543.25;5045042;28;20484;-38
2021/12/31 02:40:29;;;;;;;33.53;4.93;;;;;;;10.61;100.00;101538.50;5045231;28;20041;-39
2021/12/31 02:42:58;;;;;;;31.70;4.50;;;;;;;10.65;100.00;101547.16;5043642;28;20042;-36
2021/12/31 02:45:30;;;;;;;26.05;4.53;;;;;;;10.69;100.00;101524.00;5039677;28;20042;-43
2021/12/31 02:48:01;;;;;;;28.88;4.53;;;;;;;10.72;100.00;101517.00;5042379;28;20083;-36
2021/12/31 02:50:34;;;;;;;30.65;5.50;;;;;;;10.77;100.00;101505.00;5047230;28;20059;-37
2021/12/31 02:53:03;;;;;;;25.67;4.95;;;;;;;10.81;100.00;101522.81;5044624;28;20132;-36
2021/12/31 02:55:32;;;;;;;27.10;4.43;;;;;;;10.84;100.00;101494.34;5037504;28;20033;-33
2021/12/31 02:58:01;;;;;;;27.60;5.25;;;;;;;10.85;100.00;101501.59;5041750;28;20060;-35
2021/12/31 03:00:29;;;;;;;26.45;4.10;;;;;;;10.86;100.00;101520.03;5048939;28;20049;-38
2021/12/31 03:02:58;;;;;;;25.40;4.60;;;;;;;10.84;100.00;101530.63;5045350;28;20140;-36
2021/12/31 03:05:29;;;;;;;35.05;6.13;;;;;;;10.83;100.00;101537.34;5034980;28;20052;-38
2021/12/31 03:07:58;;;;;;;23.83;5.05;;;;;;;10.81;100.00;101528.41;5040320;28;20045;-36
2021/12/31 03:10:27;;;;;;;32.80;5.22;;;;;;;10.80;100.00;101549.06;5051504;28;20045;-33
2021/12/31 03:12:57;;;;;;;31.63;4.70;;;;;;;10.78;100.00;101548.53;5044792;28;20059;-37
2021/12/31 03:15:26;;;;;;;30.63;5.65;;;;;;;10.79;100.00;101530.69;5034514;28;20044;-31
2021/12/31 03:17:57;;;;;;;25.02;4.68;;;;;;;10.80;100.00;101518.34;5039417;28;20053;-39
2021/12/31 03:20:36;;;;;;;31.38;4.00;;;;;;;10.78;100.00;101524.25;5033488;28;20133;-37
2021/12/31 03:23:06;;;;;;;36.95;5.40;;;;;;;10.77;100.00;101536.53;5039612;28;20406;-39
2021/12/31 03:25:34;;;;;;;29.92;4.30;;;;;;;10.80;100.00;101509.97;5034238;28;20056;-36
2021/12/31 03:28:02;;;;;;;30.30;5.28;;;;;;;10.78;100.00;101506.66;5038580;28;20053;-39
2021/12/31 03:30:30;;;;;;;29.15;4.72;;;;;;;10.80;100.00;101502.44;5050804;28;20049;-37
2021/12/31 03:32:58;;;;;;;30.65;5.13;;;;;;;10.82;100.00;101496.56;5043457;28;20111;-35
2021/12/31 03:35:28;;;;;;;35.22;5.22;;;;;;;10.81;100.00;101508.88;5018311;28;20079;-35
2021/12/31 03:37:56;;;;;;;23.50;4.50;;;;;;;10.80;100.00;101504.41;5040101;28;20109;-33
2021/12/31 03:40:25;;;;;;;24.13;3.83;;;;;;;10.81;100.00;101497.69;5046535;28;20048;-41
2021/12/31 03:42:53;;;;;;;34.20;4.78;;;;;;;10.73;100.00;101493.56;5044190;28;20052;-35
2021/12/31 03:45:20;;;;;;;23.73;4.68;;;;;;;10.72;100.00;101503.06;5040017;28;20045;-38
2021/12/31 03:47:48;;;;;;;25.92;4.35;;;;;;;10.69;100.00;101504.44;5039156;28;20489;-36
2021/12/31 03:50:16;;;;;;;26.48;4.60;;;;;;;10.62;100.00;101492.75;5043404;28;20513;-34
2021/12/31 03:52:43;;;;;;;26.30;4.90;;;;;;;10.56;100.00;101504.22;5045085;28;20053;-36
2021/12/31 03:55:12;;;;;;;32.08;5.53;;;;;;;10.46;100.00;101507.03;5042757;28;20057;-39
2021/12/31 03:57:41;;;;;;;22.83;4.18;;;;;;;10.40;100.00;101506.19;5037218;28;20057;-37
2021/12/31 04:00:13;;;;;;;28.83;4.80;;;;;;;10.36;100.00;101502.31;5040859;28;20098;-34
2021/12/31 04:02:40;;;;;;;23.92;4.82;;;;;;;10.29;100.00;101502.59;5047026;28;20060;-37
2021/12/31 04:05:09;;;;;;;33.65;4.57;;;;;;;10.27;100.00;101504.84;5043080;28;20053;-41
2021/12/31 04:07:36;;;;;;;27.30;4.43;;;;;;;10.20;100.00;101497.88;5035394;28;20053;-36
2021/12/31 04:10:05;;;;;;;25.77;4.35;;;;;;;10.16;100.00;101493.97;5038774;28;20040;-43
2021/12/31 04:12:33;;;;;;;28.08;4.60;;;;;;;10.10;100.00;101490.34;5050184;28;20041;-38
2021/12/31 04:15:02;;;;;;;30.00;5.15;;;;;;;10.06;100.00;101477.22;5043275;28;20041;-42
2021/12/31 04:17:30;;;;;;;27.05;4.35;;;;;;;10.05;100.00;101481.97;5033314;28;20051;-34
2021/12/31 04:19:58;;;;;;;27.52;4.57;;;;;;;10.01;100.00;101470.53;5038219;28;20144;-41
2021/12/31 04:22:29;;;;;;;31.77;4.78;;;;;;;9.98;100.00;101471.13;5049367;28;20140;-34
2021/12/31 04:24:57;;;;;;;22.73;4.25;;;;;;;9.98;100.00;101470.28;5044885;28;20041;-42
2021/12/31 04:27:25;;;;;;;32.92;5.00;;;;;;;9.97;100.00;101457.44;5033345;28;20053;-44
2021/12/31 04:29:53;;;;;;;24.10;3.92;;;;;;;9.96;100.00;101448.25;5042919;28;20037;-44
2021/12/31 04:32:24;;;;;;;26.05;4.55;;;;;;;10.01;100.00;101441.81;5035441;28;20053;-37
2021/12/31 04:34:52;;;;;;;22.00;4.10;;;;;;;10.00;100.00;101451.28;5021678;28;20052;-38
2021/12/31 04:37:20;;;;;;;27.30;5.60;;;;;;;9.98;100.00;101451.59;5045678;28;20071;-31
2021/12/31 04:39:47;;;;;;;25.60;3.65;;;;;;;9.96;100.00;101450.22;5042977;28;20055;-34
2021/12/31 04:42:15;;;;;;;24.58;4.47;;;;;;;9.95;100.00;101448.53;5038839;28;20402;-33
2021/12/31 04:44:43;;;;;;;27.05;4.85;;;;;;;9.92;100.00;101449.09;5037859;28;20051;-40
2021/12/31 04:47:10;;;;;;;22.15;4.60;;;;;;;9.92;100.00;101433.19;5042243;28;20100;-35
2021/12/31 04:49:39;;;;;;;22.17;4.18;;;;;;;9.90;100.00;101443.78;5043529;28;20058;-40
2021/12/31 04:52:07;;;;;;;25.17;4.72;;;;;;;9.88;100.00;101437.66;5039379;28;20056;-37
2021/12/31 04:54:35;;;;;;;22.40;3.92;;;;;;;9.87;100.00;101432.38;5044908;28;20061;-35
2021/12/31 04:57:03;;;;;;;26.90;4.97;;;;;;;9.87;100.00;101424.00;5042426;28;20053;-34
2021/12/31 04:59:31;;;;;;;30.15;4.75;;;;;;;9.85;100.00;101434.59;5034861;28;20055;-32
2021/12/31 05:01:59;;;;;;;21.45;3.90;;;;;;;9.86;100.00;101434.31;5038900;28;20080;-40
2021/12/31 05:04:27;;;;;;;24.13;3.65;;;;;;;9.83;100.00;101450.75;5045316;28;20060;-40
2021/12/31 05:06:56;;;;;;;21.95;4.13;;;;;;;9.80;100.00;101452.16;5041978;28;20061;-39
2021/12/31 05:09:24;;;;;;;20.67;3.70;;;;;;;9.80;100.00;101456.88;5031969;28;20064;-35
2021/12/31 05:11:52;;;;;;;26.27;4.80;;;;;;;9.77;100.00;101447.16;5042056;28;20052;-36
2021/12/31 05:14:20;;;;;;;25.13;4.15;;;;;;;9.79;100.00;101458.84;5031809;28;20049;-41
2021/12/31 05:16:48;;;;;;;18.33;4.25;;;;;;;9.79;100.00;101456.03;5036928;28;20072;-36
2021/12/31 05:19:16;;;;;;;22.17;4.22;;;;;;;9.79;100.00;101444.91;5048704;28;20052;-33
2021/12/31 05:21:43;;;;;;;25.00;4.82;;;;;;;9.78;100.00;101443.25;5044042;28;20060;-43
2021/12/31 05:24:14;;;;;;;22.65;4.07;;;;;;;9.79;100.00;101438.53;5033640;28;20042;-32
2021/12/31 05:26:41;;;;;;;22.75;4.07;;;;;;;9.79;100.00;101453.25;5037781;28;20033;-36
2021/12/31 05:29:09;;;;;;;26.60;3.88;;;;;;;9.82;100.00;101461.06;5046697;28;20049;-33
2021/12/31 05:31:37;;;;;;;21.30;3.45;;;;;;;9.83;100.00;101450.75;5042410;28;20506;-36
2021/12/31 05:34:05;;;;;;;27.25;4.25;;;;;;;9.82;100.00;101458.28;5035746;28;20045;-36
2021/12/31 05:36:33;;;;;;;28.48;5.03;;;;;;;9.81;100.00;101447.41;5038044;28;20512;-33
2021/12/31 05:39:01;;;;;;;29.63;4.43;;;;;;;9.81;100.00;101448.25;5042747;28;20037;-37
2021/12/31 05:41:32;;;;;;;30.13;4.45;;;;;;;9.80;100.00;101452.16;5041822;28;20037;-36
2021/12/31 05:44:00;;;;;;;23.50;4.10;;;;;;;9.82;100.00;101427.63;5040553;28;20068;-40
2021/12/31 05:46:27;;;;;;;24.42;4.30;;;;;;;9.83;100.00;101426.50;5036658;28;20133;-34
2021/12/31 05:48:55;;;;;;;26.13;4.00;;;;;;;9.85;100.00;101417.88;5039688;28;20075;-34
2021/12/31 05:51:26;;;;;;;25.15;4.25;;;;;;;9.87;100.00;101435.97;5045526;28;20042;-36
2021/12/31 05:53:53;;;;;;;24.02;4.35;;;;;;;9.89;100.00;101428.19;5041091;28;20499;-37
2021/12/31 05:56:21;;;;;;;25.67;4.72;;;;;;;9.92;100.00;101424.00;5035588;28;20366;-40
2021/12/31 05:58:51;;;;;;;20.98;3.90;;;;;;;9.94;100.00;101433.75;5024793;28;20051;-35
2021/12/31 06:01:20;;;;;;;26.83;4.20;;;;;;;9.94;100.00;101430.13;5052346;28;20060;-33
2021/12/31 06:03:48;;;;;;;22.30;4.32;;;;;;;9.95;100.00;101445.75;5046872;28;20041;-37
2021/12/31 06:06:16;;;;;;;20.80;3.60;;;;;;;9.96;100.00;101447.41;5035581;28;20041;-40
2021/12/31 06:08:43;;;;;;;20.38;3.85;;;;;;;9.97;100.00;101452.72;5040491;28;20049;-37
2021/12/31 06:11:11;;;;;;;28.10;5.00;;;;;;;9.99;100.00;101444.06;5052545;28;20056;-38
2021/12/31 06:13:39;;;;;;;25.25;4.03;;;;;;;9.99;100.00;101433.72;5047314;28;20053;-33
2021/12/31 06:16:08;;;;;;;25.80;4.30;;;;;;;10.01;100.00;101430.66;5034629;28;20049;-37
2021/12/31 06:18:36;;;;;;;20.25;4.07;;;;;;;10.01;100.00;101425.09;5040495;28;20081;-34
2021/12/31 06:21:04;;;;;;;22.65;3.83;;;;;;;10.02;100.00;101427.59;5051528;28;20053;-33
2021/12/31 06:23:33;;;;;;;21.25;4.20;;;;;;;10.02;100.00;101413.66;5044905;28;20049;-40
2021/12/31 06:26:21;;;;;;;23.23;3.85;;;;;;;10.01;100.00;101413.94;5036025;28;20108;-37
2021/12/31 06:28:48;;;;;;;25.98;4.63;;;;;;;10.02;100.00;101393.28;5040280;28;20045;-38
2021/12/31 06:31:18;;;;;;;25.95;3.97;;;;;;;10.00;100.00;101406.69;5049813;28;20045;-37
2021/12/31 06:33:45;;;;;;;26.17;4.18;;;;;;;10.02;100.00;101407.25;5045350;28;20394;-34
2021/12/31 06:36:13;;;;;;;29.30;4.13;;;;;;;10.01;100.00;101395.25;5038672;28;20053;-34
2021/12/31 06:38:41;;;;;;;20.48;4.18;;;;;;;10.02;100.00;101387.72;5039503;28;20049;-33
2021/12/31 06:41:09;;;;;;;20.00;3.75;;;;;;;10.02;100.00;101391.34;5045425;28;20049;-36
2021/12/31 06:43:37;;;;;;;23.80;4.40;;;;;;;9.99;100.00;101396.69;5044068;28;20056;-38
2021/12/31 06:46:04;;;;;;;18.98;3.67;;;;;;;9.97;100.00;101374.66;5042851;28;20046;-39
2021/12/31 06:48:33;;;;;;;25.17;4.28;;;;;;;9.99;100.00;101380.75;5039661;28;20048;-37
2021/12/31 06:51:01;;;;;;;24.83;3.83;;;;;;;9.95;100.00;101382.47;5040987;28;20049;-37
2021/12/31 06:53:29;;;;;;;20.83;3.75;;;;;;;9.96;100.00;101380.50;5048329;28;20048;-36
2021/12/31 06:55:57;;;;;;;26.90;3.85;;;;;;;9.93;100.00;101392.22;5044411;28;20049;-35
2021/12/31 06:58:24;;;;;;;20.13;3.88;;;;;;;9.91;100.00;101392.50;5036275;28;20053;-34
2021/12/31 07:00:52;;;;;;;28.88;4.38;;;;;;;9.91;100.00;101409.22;5040938;28;20491;-37
2021/12/31 07:03:20;;;;;;;22.75;4.35;;;;;;;9.90;100.00;101413.13;5050717;28;20045;-35
2021/12/31 07:05:49;;;;;;;27.80;4.05;;;;;;;9.90;100.00;101415.91;5043598;28;20516;-33
2021/12/31 07:08:17;;;;;;;28.35;4.80;;;;;;;9.84;100.00;101430.13;5015450;28;20065;-35
2021/12/31 07:10:45;;;;;;;24.48;4.68;;;;;;;9.84;100.00;101444.06;5038057;28;20061;-36
2021/12/31 07:13:13;;;;;;;30.10;4.70;;;;;;;9.81;100.00;101453.81;5050414;28;20048;-36
2021/12/31 07:15:41;;;;;;;27.33;4.57;;;;;;;9.82;100.00;101455.50;5042589;28;20049;-38
2021/12/31 07:18:09;;;;;;;29.08;4.63;;;;;;;9.78;100.00;101465.56;5031606;28;20050;-29
2021/12/31 07:20:37;;;;;;;25.67;4.20;;;;;;;9.78;100.00;101478.66;5038648;28;20180;-36
2021/12/31 07:23:07;;;;;;;29.45;4.45;;;;;;;9.79;100.00;101483.91;5048407;28;20048;-33
2021/12/31 07:25:35;;;;;;;26.30;4.82;;;;;;;9.78;100.00;101476.69;5040685;28;20290;-38
2021/12/31 07:28:03;;;;;;;23.60;3.65;;;;;;;9.75;100.00;101482.81;5018751;28;20064;-35
2021/12/31 07:30:31;;;;;;;26.92;4.40;;;;;;;9.75;100.00;101476.41;5038358;28;20060;-35
2021/12/31 07:32:59;;;;;;;21.33;3.92;;;;;;;9.77;100.00;101480.59;5026036;28;20406;-35
2021/12/31 07:35:28;;;;;;;28.45;4.47;;;;;;;9.79;100.00;101492.28;5043612;28;20049;-39
2021/12/31 07:37:56;;;;;;;24.38;3.95;;;;;;;9.79;100.00;101495.06;5040100;28;20049;-32
2021/12/31 07:40:37;;;;;;;28.63;4.00;;;;;;;9.79;100.00;101506.22;5037678;28;20041;-39
2021/12/31 07:43:05;;;;;;;24.55;4.10;;;;;;;9.79;100.00;101513.78;5041718;28;20053;-36
2021/12/31 07:45:32;;;;;;;32.55;4.80;;;;;;;9.82;100.00;101516.81;5024330;28;20144;-37
2021/12/31 07:48:01;;;;;;;26.70;4.72;;;;;;;9.83;100.00;101518.50;5039325;28;20077;-38
2021/12/31 07:50:29;;;;;;;23.08;3.92;;;;;;;9.85;100.00;101504.28;5043996;28;20053;-39
2021/12/31 07:52:57;;;;;;;30.00;4.53;;;;;;;9.84;100.00;101500.66;5040808;28;20415;-31
2021/12/31 07:55:26;;;;;;;24.55;4.00;;;;;;;9.85;100.00;101505.13;5034442;28;20055;-40
2021/12/31 07:57:54;;;;;;;26.13;4.18;;;;;;;9.84;100.00;101503.44;5042449;28;20049;-41
2021/12/31 08:00:21;;;;;;;23.55;4.20;;;;;;;9.87;100.00;101499.25;5032763;28;20049;-33
2021/12/31 08:02:50;;;;;;;24.80;4.82;;;;;;;9.86;100.00;101492.84;5037700;28;20048;-29
2021/12/31 08:05:17;;;;;;;22.77;3.72;;;;;;;9.87;100.00;101511.25;5048519;28;20103;-38
2021/12/31 08:07:45;;;;;;;26.33;4.35;;;;;;;9.87;100.00;101508.47;5041649;28;20053;-36
2021/12/31 08:10:13;;;;;;;25.90;4.20;;;;;;;9.85;100.00;101504.28;5031438;28;20575;-36
2021/12/31 08:13:02;;;;;;;22.38;4.38;;;;;;;9.85;100.00;101507.91;5042687;28;20402;-36
2021/12/31 08:15:30;;;;;;;27.40;4.10;;;;;;;9.85;100.00;101516.25;5030057;28;20044;-39
2021/12/31 08:17:58;;;;;;;22.75;3.90;;;;;;;9.84;100.00;101509.00;5035460;28;20480;-40
2021/12/31 08:20:28;;;;;;;19.88;3.85;;;;;;;9.86;100.00;101498.44;5047855;28;20465;-39
2021/12/31 08:23:05;;;;;;;29.40;5.07;;;;;;;9.86;100.00;101495.63;5041993;28;20049;-33
2021/12/31 08:25:33;;;;;;;23.90;4.32;;;;;;;9.88;100.00;101495.38;5029024;28;20064;-36
2021/12/31 08:28:02;;;;;;;23.75;3.90;;;;;;;9.87;100.00;101516.81;5036783;28;20045;-32
2021/12/31 08:30:30;;;;;;;25.45;4.43;;;;;;;9.87;100.00;101522.41;5047427;28;20053;-33
2021/12/31 08:32:58;;;;;;;25.70;4.57;;;;;;;9.89;100.00;101508.19;5037661;28;20037;-36
2021/12/31 08:35:25;;;;;;;26.10;4.78;;;;;;;9.89;100.00;101519.34;5045910;28;20079;-33
2021/12/31 08:37:53;;;;;;;29.38;4.75;;;;;;;9.86;100.00;101506.78;5041459;28;20387;-41
2021/12/31 08:40:21;;;;;;;23.55;4.15;;;;;;;9.86;100.00;101508.75;5036217;28;20558;-35
2021/12/31 08:42:49;;;;;;;21.38;4.75;;;;;;;9.85;100.00;101524.63;5036770;28;20507;-32
2021/12/31 08:45:19;;;;;;;28.08;4.72;;;;;;;9.85;100.00;101527.41;5042475;28;20056;-39
2021/12/31 08:47:47;;;;;;;22.30;4.05;;;;;;;9.85;100.00;101516.25;5041404;28;20037;-38
2021/12/31 08:50:15;;;;;;;23.90;4.65;;;;;;;9.83;100.00;101526.84;5039311;28;20064;-33
2021/12/31 08:52:42;;;;;;;21.10;4.65;;;;;;;9.83;100.00;101521.28;5037631;28;20425;-36
2021/12/31 08:55:11;;;;;;;21.45;4.10;;;;;;;9.84;100.00;101514.59;5041103;28;20038;-32
2021/12/31 08:57:39;;;;;;;22.80;4.07;;;;;;;9.85;100.00;101529.38;5034074;28;20525;-36
2021/12/31 09:00:08;;;;;;;33.00;5.00;;;;;;;9.83;100.00;101524.06;5038367;28;20044;-38
2021/12/31 09:02:39;;;;;;;25.23;4.72;;;;;;;9.81;100.00;101543.00;5045288;28;20052;-34
2021/12/31 09:05:08;;;;;;;24.42;3.88;;;;;;;9.83;100.00;101538.00;5040657;28;20045;-34
2021/12/31 09:07:36;;;;;;;25.30;4.10;;;;;;;9.79;100.00;101544.44;5032726;28;20060;-34
2021/12/31 09:10:07;;;;;;;20.65;4.13;;;;;;;9.82;100.00;101522.38;5042375;28;20593;-38
2021/12/31 09:12:35;;;;;;;23.90;4.13;;;;;;;9.80;100.00;101544.13;5030758;28;20053;-35
2021/12/31 09:15:04;;;;;;;24.42;4.70;;;;;;;9.81;100.00;101550.53;5048107;28;20059;-40
2021/12/31 09:17:32;;;;;;;23.42;4.70;;;;;;;9.78;100.00;101540.81;5030261;28;20139;-36
2021/12/31 09:20:01;;;;;;;22.15;3.67;;;;;;;9.79;100.00;101534.09;5036258;28;20057;-33
2021/12/31 09:22:29;;;;;;;20.95;3.88;;;;;;;9.79;100.00;101527.72;5031100;28;20048;-35
2021/12/31 09:24:58;;;;;;;21.88;3.95;;;;;;;9.77;100.00;101513.22;5035186;28;20569;-34
2021/12/31 09:27:26;;;;;;;17.58;4.28;;;;;;;9.74;100.00;101514.59;5045949;28;20482;-35
2021/12/31 09:29:54;;;;;;;20.88;3.40;;;;;;;9.69;100.00;101536.88;5042124;28;20041;-35
2021/12/31 09:32:22;;;;;;;26.88;4.00;;;;;;;9.64;100.00;101560.00;5036519;28;20144;-34
2021/12/31 09:34:50;;;;;;;20.27;3.83;;;;;;;9.66;100.00;101566.13;5041164;28;20574;-31
2021/12/31 09:37:19;;;;;;;24.17;3.85;;;;;;;9.63;100.00;101552.75;5048169;28;20500;-35
2021/12/31 09:39:47;;;;;;;19.48;4.10;;;;;;;9.63;100.00;101551.91;5044535;28;20107;-37
2021/12/31 09:42:15;;;;;;;16.40;3.33;;;;;;;9.61;100.00;101582.84;5040329;28;20526;-31
2021/12/31 09:44:46;;;;;;;26.63;4.60;;;;;;;9.63;100.00;101579.78;5040848;28;20414;-34
2021/12/31 09:47:16;;;;;;;26.70;4.28;;;;;;;9.58;100.00;101572.25;5044193;28;20145;-31
2021/12/31 09:49:45;;;;;;;16.23;3.50;;;;;;;9.58;100.00;101579.78;5045131;28;20053;-35
2021/12/31 09:52:14;;;;;;;25.80;3.78;;;;;;;9.58;100.00;101571.44;5043792;28;20053;-37
2021/12/31 09:54:45;;;;;;;19.58;3.25;;;;;;;9.57;100.00;101559.44;5038351;28;20057;-34
2021/12/31 09:57:13;;;;;;;18.30;3.40;;;;;;;9.58;100.00;101565.84;5042357;28;20053;-38
2021/12/31 09:59:41;;;;;;;22.65;3.85;;;;;;;9.56;100.00;101562.50;5046967;28;20045;-35
2021/12/31 10:02:10;;;;;;;28.45;4.13;;;;;;;9.55;100.00;101571.97;5044407;28;20055;-33
2021/12/31 10:04:51;;;;;;;27.90;5.00;;;;;;;9.54;100.00;101568.34;5036941;28;20071;-40
2021/12/31 10:07:21;;;;;;;24.02;4.60;;;;;;;9.55;100.00;101574.75;5043432;28;20507;-29
2021/12/31 10:10:11;;;;;;;24.60;4.53;;;;;;;9.56;100.00;101568.06;5036539;28;20123;-35
2021/12/31 10:12:50;;;;;;;29.77;4.75;;;;;;;9.56;100.00;101554.16;5044135;28;20045;-39
2021/12/31 10:15:19;;;;;;;26.98;3.83;;;;;;;9.54;100.00;101568.34;5037574;28;20402;-34
2021/12/31 10:17:47;;;;;;;24.75;4.28;;;;;;;9.54;100.00;101559.16;5041212;28;20561;-34
2021/12/31 10:20:15;;;;;;;23.10;3.80;;;;;;;9.55;100.00;101552.47;5048288;28;20096;-38
2021/12/31 10:22:43;;;;;;;28.85;4.25;;;;;;;9.55;100.00;101555.25;5023167;28;20260;-36
2021/12/31 10:25:20;;;;;;;22.75;3.90;;;;;;;9.54;100.00;101545.22;5049238;28;20045;-41
2021/12/31 10:27:51;;;;;;;21.30;4.07;;;;;;;9.56;100.00;101531.84;5040192;28;20049;-33
2021/12/31 10:30:23;;;;;;;29.00;4.50;;;;;;;9.57;100.00;101533.53;5048898;28;20592;-39
2021/12/31 10:32:52;;;;;;;34.58;5.20;;;;;;;9.55;100.00;101532.97;5045097;28;20084;-36
2021/12/31 10:35:21;;;;;;;24.65;3.92;;;;;;;9.55;100.00;101519.03;5015701;28;20427;-33
2021/12/31 10:37:51;;;;;;;25.17;3.83;;;;;;;9.57;100.00;101526.00;5039664;28;20057;-39
2021/12/31 10:40:31;;;;;;;27.30;4.82;;;;;;;9.57;100.00;101530.75;5050728;28;20055;-34
2021/12/31 10:43:11;;;;;;;24.08;3.50;;;;;;;9.53;100.00;101529.63;5043100;28;20045;-38
2021/12/31 10:45:39;;;;;;;25.38;3.75;;;;;;;9.49;100.00;101517.34;5033746;28;20046;-36
2021/12/31 10:48:10;;;;;;;26.52;4.10;;;;;;;9.50;100.00;101508.72;5039592;28;20053;-37
2021/12/31 10:50:38;;;;;;;26.77;4.38;;;;;;;9.50;100.00;101525.44;5049833;28;20046;-36
2021/12/31 10:53:11;;;;;;;23.33;4.25;;;;;;;9.51;100.00;101545.78;5045468;28;20048;-38
2021/12/31 10:55:41;;;;;;;31.45;4.70;;;;;;;9.47;100.00;101541.84;5033340;28;20049;-35
2021/12/31 10:58:11;;;;;;;33.15;4.70;;;;;;;9.45;100.00;101538.50;5037966;28;20053;-37
2021/12/31 11:00:42;;;;;;;25.23;3.83;;;;;;;9.43;100.00;101540.72;5050467;28;20056;-35
2021/12/31 11:03:10;;;;;;;27.63;4.32;;;;;;;9.45;100.00;101547.69;5037567;28;20327;-29
2021/12/31 11:05:38;;;;;;;28.52;4.90;;;;;;;9.45;100.00;101555.22;5050019;28;20088;-38
2021/12/31 11:08:08;;;;;;;33.08;5.43;;;;;;;9.42;100.00;101542.66;5039318;28;20049;-33
2021/12/31 11:10:41;;;;;;;26.90;5.13;;;;;;;9.42;100.00;101553.81;5047894;28;20048;-33
2021/12/31 11:13:13;;;;;;;34.13;5.43;;;;;;;9.37;100.00;101548.25;5043687;28;20049;-37
2021/12/31 11:15:42;;;;;;;32.65;4.90;;;;;;;9.38;100.00;101560.22;5036083;28;20115;-34
2021/12/31 11:18:11;;;;;;;23.40;4.35;;;;;;;9.39;100.00;101551.59;5038390;28;20049;-37
2021/12/31 11:20:41;;;;;;;32.90;5.07;;;;;;;9.38;100.00;101551.88;5045690;28;20053;-40
2021/12/31 11:23:09;;;;;;;28.73;4.93;;;;;;;9.33;100.00;101539.59;5043364;28;20127;-36